sensor_id;sensor_type;location;lat;lon;timestamp;pressure;altitude;pressure_sealevel;temperature;humidity
23172;BME280;11754;42.664;23.594;2024-03-02T00:01:20;94861.47;;;8.80;78.10
23172;BME280;11754;42.664;23.594;2024-03-02T00:03:46;94865.91;;;8.79;78.44
23172;BME280;11754;42.664;23.594;2024-03-02T00:06:11;94869.19;;;8.89;78.15
23172;BME280;11754;42.664;23.594;2024-03-02T00:08:37;94879.06;;;8.87;78.23
23172;BME280;11754;42.664;23.594;2024-03-02T00:11:03;94867.50;;;8.97;78.02
23172;BME280;11754;42.664;23.594;2024-03-02T00:13:29;94874.03;;;9.09;77.59
23172;BME280;11754;42.664;23.594;2024-03-02T00:15:56;94863.16;;;9.12;77.87
23172;BME280;11754;42.664;23.594;2024-03-02T00:18:33;94856.09;;;9.12;77.72
23172;BME280;11754;42.664;23.594;2024-03-02T00:20:59;94870.22;;;9.11;77.77
23172;BME280;11754;42.664;23.594;2024-03-02T00:23:30;94876.91;;;9.22;77.90
23172;BME280;11754;42.664;23.594;2024-03-02T00:25:59;94871.97;;;9.27;77.98
23172;BME280;11754;42.664;23.594;2024-03-02T00:28:30;94866.81;;;9.34;77.34
23172;BME280;11754;42.664;23.594;2024-03-02T00:31:05;94865.50;;;9.38;76.96
23172;BME280;11754;42.664;23.594;2024-03-02T00:33:46;94873.34;;;9.46;77.31
23172;BME280;11754;42.664;23.594;2024-03-02T00:36:16;94857.84;;;9.51;76.75
23172;BME280;11754;42.664;23.594;2024-03-02T00:38:52;94857.69;;;9.53;76.23
23172;BME280;11754;42.664;23.594;2024-03-02T00:41:25;94856.59;;;9.62;76.06
23172;BME280;11754;42.664;23.594;2024-03-02T00:46:23;94855.22;;;9.74;75.10
23172;BME280;11754;42.664;23.594;2024-03-02T00:48:59;94846.53;;;9.66;75.15
23172;BME280;11754;42.664;23.594;2024-03-02T00:51:28;94841.06;;;9.75;74.86
23172;BME280;11754;42.664;23.594;2024-03-02T00:53:55;94848.41;;;9.80;74.74
23172;BME280;11754;42.664;23.594;2024-03-02T00:59:43;94840.00;;;9.84;74.68
23172;BME280;11754;42.664;23.594;2024-03-02T01:02:08;94840.00;;;9.84;74.98
23172;BME280;11754;42.664;23.594;2024-03-02T01:04:33;94833.16;;;9.75;74.95
23172;BME280;11754;42.664;23.594;2024-03-02T01:06:59;94834.84;;;9.68;75.43
23172;BME280;11754;42.664;23.594;2024-03-02T01:09:24;94835.03;;;9.67;74.97
23172;BME280;11754;42.664;23.594;2024-03-02T01:11:50;94835.09;;;9.81;74.99
23172;BME280;11754;42.664;23.594;2024-03-02T01:14:15;94837.66;;;9.90;74.10
23172;BME280;11754;42.664;23.594;2024-03-02T01:16:40;94830.38;;;9.92;73.90
23172;BME280;11754;42.664;23.594;2024-03-02T01:19:06;94829.28;;;9.86;73.91
23172;BME280;11754;42.664;23.594;2024-03-02T01:21:31;94820.56;;;9.85;73.52
23172;BME280;11754;42.664;23.594;2024-03-02T01:23:57;94822.06;;;9.80;74.59
23172;BME280;11754;42.664;23.594;2024-03-02T01:26:22;94823.28;;;9.77;74.18
23172;BME280;11754;42.664;23.594;2024-03-02T01:28:47;94829.47;;;9.84;74.80
23172;BME280;11754;42.664;23.594;2024-03-02T01:31:14;94816.66;;;9.81;74.54
23172;BME280;11754;42.664;23.594;2024-03-02T01:33:39;94823.75;;;9.81;75.12
23172;BME280;11754;42.664;23.594;2024-03-02T01:36:05;94822.53;;;9.83;74.72
23172;BME280;11754;42.664;23.594;2024-03-02T01:38:30;94830.16;;;9.78;75.24
23172;BME280;11754;42.664;23.594;2024-03-02T01:44:19;94819.63;;;9.78;75.07
23172;BME280;11754;42.664;23.594;2024-03-02T01:46:44;94819.28;;;9.81;74.78
23172;BME280;11754;42.664;23.594;2024-03-02T01:49:10;94817.94;;;9.85;75.21
23172;BME280;11754;42.664;23.594;2024-03-02T01:51:35;94817.84;;;9.94;74.31
23172;BME280;11754;42.664;23.594;2024-03-02T01:54:00;94819.03;;;9.91;74.35
23172;BME280;11754;42.664;23.594;2024-03-02T01:56:41;94816.22;;;9.93;74.41
23172;BME280;11754;42.664;23.594;2024-03-02T01:59:07;94818.84;;;9.93;74.19
23172;BME280;11754;42.664;23.594;2024-03-02T02:01:32;94817.28;;;9.83;74.16
23172;BME280;11754;42.664;23.594;2024-03-02T02:03:58;94819.22;;;9.90;74.37
23172;BME280;11754;42.664;23.594;2024-03-02T02:06:23;94825.47;;;9.89;74.04
23172;BME280;11754;42.664;23.594;2024-03-02T02:08:49;94826.56;;;9.94;74.03
23172;BME280;11754;42.664;23.594;2024-03-02T02:11:15;94817.75;;;9.87;74.21
23172;BME280;11754;42.664;23.594;2024-03-02T02:13:41;94816.94;;;9.86;74.46
23172;BME280;11754;42.664;23.594;2024-03-02T02:16:07;94810.13;;;9.92;74.06
23172;BME280;11754;42.664;23.594;2024-03-02T02:22:10;94804.13;;;9.98;73.23
23172;BME280;11754;42.664;23.594;2024-03-02T02:24:39;94817.50;;;9.97;72.87
23172;BME280;11754;42.664;23.594;2024-03-02T02:27:05;94809.41;;;9.98;72.72
23172;BME280;11754;42.664;23.594;2024-03-02T02:29:30;94813.88;;;9.98;72.80
23172;BME280;11754;42.664;23.594;2024-03-02T02:31:56;94816.69;;;9.96;72.65
23172;BME280;11754;42.664;23.594;2024-03-02T02:34:21;94813.88;;;9.98;73.22
23172;BME280;11754;42.664;23.594;2024-03-02T02:36:47;94808.03;;;10.02;72.96
23172;BME280;11754;42.664;23.594;2024-03-02T02:42:39;94809.41;;;9.98;73.07
23172;BME280;11754;42.664;23.594;2024-03-02T02:45:06;94809.88;;;10.02;72.92
23172;BME280;11754;42.664;23.594;2024-03-02T02:47:31;94819.00;;;10.14;72.58
23172;BME280;11754;42.664;23.594;2024-03-02T02:50:00;94811.34;;;10.04;73.09
23172;BME280;11754;42.664;23.594;2024-03-02T02:52:31;94819.34;;;10.11;72.76
23172;BME280;11754;42.664;23.594;2024-03-02T02:54:58;94811.88;;;10.00;72.97
23172;BME280;11754;42.664;23.594;2024-03-02T02:57:23;94811.88;;;10.00;72.94
23172;BME280;11754;42.664;23.594;2024-03-02T02:59:49;94815.94;;;10.02;73.20
23172;BME280;11754;42.664;23.594;2024-03-02T03:02:14;94815.69;;;10.12;72.88
23172;BME280;11754;42.664;23.594;2024-03-02T03:04:40;94805.53;;;10.09;72.65
23172;BME280;11754;42.664;23.594;2024-03-02T03:07:05;94804.53;;;10.10;72.87
23172;BME280;11754;42.664;23.594;2024-03-02T03:12:52;94797.25;;;9.97;72.75
23172;BME280;11754;42.664;23.594;2024-03-02T03:15:18;94822.16;;;10.09;73.15
23172;BME280;11754;42.664;23.594;2024-03-02T03:17:43;94819.44;;;10.18;72.27
23172;BME280;11754;42.664;23.594;2024-03-02T03:20:11;94809.38;;;10.21;72.06
23172;BME280;11754;42.664;23.594;2024-03-02T03:22:37;94807.25;;;10.17;72.37
23172;BME280;11754;42.664;23.594;2024-03-02T03:25:03;94809.06;;;10.16;71.89
23172;BME280;11754;42.664;23.594;2024-03-02T03:27:28;94812.06;;;10.13;71.97
23172;BME280;11754;42.664;23.594;2024-03-02T03:29:54;94820.97;;;10.12;72.07
23172;BME280;11754;42.664;23.594;2024-03-02T03:32:20;94816.53;;;10.13;72.47
23172;BME280;11754;42.664;23.594;2024-03-02T03:34:45;94821.31;;;10.32;71.79
23172;BME280;11754;42.664;23.594;2024-03-02T03:37:11;94825.47;;;10.26;71.83
23172;BME280;11754;42.664;23.594;2024-03-02T03:39:36;94822.91;;;10.18;71.82
23172;BME280;11754;42.664;23.594;2024-03-02T03:42:02;94821.91;;;10.19;72.39
23172;BME280;11754;42.664;23.594;2024-03-02T03:44:28;94830.69;;;10.11;72.29
23172;BME280;11754;42.664;23.594;2024-03-02T03:46:53;94824.63;;;10.11;72.50
23172;BME280;11754;42.664;23.594;2024-03-02T03:49:18;94826.25;;;10.12;72.65
23172;BME280;11754;42.664;23.594;2024-03-02T03:51:44;94826.50;;;10.02;72.96
23172;BME280;11754;42.664;23.594;2024-03-02T03:54:09;94824.47;;;9.90;73.60
23172;BME280;11754;42.664;23.594;2024-03-02T03:56:36;94821.25;;;9.79;74.42
23172;BME280;11754;42.664;23.594;2024-03-02T03:59:02;94818.00;;;9.77;74.75
23172;BME280;11754;42.664;23.594;2024-03-02T04:01:27;94815.88;;;9.73;75.02
23172;BME280;11754;42.664;23.594;2024-03-02T04:03:52;94813.72;;;9.76;75.08
23172;BME280;11754;42.664;23.594;2024-03-02T04:06:18;94819.63;;;9.78;75.16
23172;BME280;11754;42.664;23.594;2024-03-02T04:08:43;94817.63;;;9.80;75.25
23172;BME280;11754;42.664;23.594;2024-03-02T04:11:09;94804.09;;;9.83;75.65
23172;BME280;11754;42.664;23.594;2024-03-02T04:13:34;94807.22;;;9.87;75.86
23172;BME280;11754;42.664;23.594;2024-03-02T04:16:00;94810.03;;;9.85;75.44
23172;BME280;11754;42.664;23.594;2024-03-02T04:18:25;94808.66;;;9.90;76.26
23172;BME280;11754;42.664;23.594;2024-03-02T04:20:50;94815.88;;;9.96;76.21
23172;BME280;11754;42.664;23.594;2024-03-02T04:23:16;94808.94;;;9.95;75.65
23172;BME280;11754;42.664;23.594;2024-03-02T04:25:41;94806.25;;;10.03;75.84
23172;BME280;11754;42.664;23.594;2024-03-02T04:28:06;94810.44;;;10.12;75.44
23172;BME280;11754;42.664;23.594;2024-03-02T04:30:32;94812.69;;;10.00;75.31
23172;BME280;11754;42.664;23.594;2024-03-02T04:32:57;94816.03;;;9.94;75.75
23172;BME280;11754;42.664;23.594;2024-03-02T04:35:23;94813.88;;;9.98;75.81
23172;BME280;11754;42.664;23.594;2024-03-02T04:37:48;94816.22;;;9.93;75.67
23172;BME280;11754;42.664;23.594;2024-03-02T04:40:14;94826.03;;;9.99;75.75
23172;BME280;11754;42.664;23.594;2024-03-02T04:42:40;94820.75;;;9.99;75.98
23172;BME280;11754;42.664;23.594;2024-03-02T04:45:05;94822.78;;;9.97;75.64
23172;BME280;11754;42.664;23.594;2024-03-02T04:47:31;94833.31;;;9.97;75.93
23172;BME280;11754;42.664;23.594;2024-03-02T04:49:57;94820.41;;;10.02;74.89
23172;BME280;11754;42.664;23.594;2024-03-02T04:52:22;94820.91;;;9.82;75.80
23172;BME280;11754;42.664;23.594;2024-03-02T04:54:47;94821.25;;;9.79;76.22
23172;BME280;11754;42.664;23.594;2024-03-02T04:57:31;94823.91;;;9.79;75.65
23172;BME280;11754;42.664;23.594;2024-03-02T04:59:57;94821.34;;;9.71;75.72
23172;BME280;11754;42.664;23.594;2024-03-02T05:02:22;94827.97;;;9.67;76.79
23172;BME280;11754;42.664;23.594;2024-03-02T05:04:48;94834.56;;;9.63;76.17
23172;BME280;11754;42.664;23.594;2024-03-02T05:07:14;94833.91;;;9.61;76.46
23172;BME280;11754;42.664;23.594;2024-03-02T05:09:40;94833.09;;;9.60;77.03
23172;BME280;11754;42.664;23.594;2024-03-02T05:12:05;94831.94;;;9.63;77.43
23172;BME280;11754;42.664;23.594;2024-03-02T05:14:55;94840.69;;;9.78;77.09
23172;BME280;11754;42.664;23.594;2024-03-02T05:17:21;94834.78;;;9.76;76.71
23172;BME280;11754;42.664;23.594;2024-03-02T05:19:46;94843.34;;;9.78;76.68
23172;BME280;11754;42.664;23.594;2024-03-02T05:22:12;94846.31;;;9.75;77.07
23172;BME280;11754;42.664;23.594;2024-03-02T05:24:37;94839.34;;;9.82;76.90
23172;BME280;11754;42.664;23.594;2024-03-02T05:27:02;94847.59;;;9.79;76.75
23172;BME280;11754;42.664;23.594;2024-03-02T05:29:28;94850.47;;;9.93;76.70
23172;BME280;11754;42.664;23.594;2024-03-02T05:31:53;94856.81;;;9.98;76.44
23172;BME280;11754;42.664;23.594;2024-03-02T05:34:18;94855.66;;;10.01;76.80
23172;BME280;11754;42.664;23.594;2024-03-02T05:36:44;94855.78;;;10.07;76.26
23172;BME280;11754;42.664;23.594;2024-03-02T05:39:09;94860.94;;;10.01;76.11
23172;BME280;11754;42.664;23.594;2024-03-02T05:41:36;94856.81;;;9.98;76.31
23172;BME280;11754;42.664;23.594;2024-03-02T05:44:01;94853.22;;;9.99;76.31
23172;BME280;11754;42.664;23.594;2024-03-02T05:46:27;94861.63;;;9.95;76.64
23172;BME280;11754;42.664;23.594;2024-03-02T05:48:53;94864.72;;;9.98;77.05
23172;BME280;11754;42.664;23.594;2024-03-02T05:51:18;94869.50;;;10.03;76.87
23172;BME280;11754;42.664;23.594;2024-03-02T05:53:44;94866.31;;;10.07;76.32
23172;BME280;11754;42.664;23.594;2024-03-02T05:56:09;94875.69;;;10.10;76.18
23172;BME280;11754;42.664;23.594;2024-03-02T05:58:34;94874.69;;;10.11;76.63
23172;BME280;11754;42.664;23.594;2024-03-02T06:01:18;94880.09;;;10.09;76.40
23172;BME280;11754;42.664;23.594;2024-03-02T06:03:44;94881.03;;;10.17;76.28
23172;BME280;11754;42.664;23.594;2024-03-02T06:06:09;94885.50;;;10.16;76.52
23172;BME280;11754;42.664;23.594;2024-03-02T06:08:35;94890.13;;;10.14;76.64
23172;BME280;11754;42.664;23.594;2024-03-02T06:11:00;94883.50;;;10.18;76.63
23172;BME280;11754;42.664;23.594;2024-03-02T06:13:26;94880.47;;;10.29;76.26
23172;BME280;11754;42.664;23.594;2024-03-02T06:15:52;94885.44;;;10.24;76.58
23172;BME280;11754;42.664;23.594;2024-03-02T06:18:17;94881.84;;;10.25;76.34
23172;BME280;11754;42.664;23.594;2024-03-02T06:20:42;94883.63;;;10.25;76.73
23172;BME280;11754;42.664;23.594;2024-03-02T06:23:08;94885.13;;;10.19;76.97
23172;BME280;11754;42.664;23.594;2024-03-02T06:25:33;94885.09;;;10.27;76.67
23172;BME280;11754;42.664;23.594;2024-03-02T06:27:59;94892.38;;;10.25;76.94
23172;BME280;11754;42.664;23.594;2024-03-02T06:30:24;94894.31;;;10.31;76.57
23172;BME280;11754;42.664;23.594;2024-03-02T06:32:50;94894.56;;;10.37;76.46
23172;BME280;11754;42.664;23.594;2024-03-02T06:35:15;94894.56;;;10.37;76.69
23172;BME280;11754;42.664;23.594;2024-03-02T06:37:42;94893.44;;;10.54;76.83
23172;BME280;11754;42.664;23.594;2024-03-02T06:40:08;94894.69;;;10.58;76.75
23172;BME280;11754;42.664;23.594;2024-03-02T06:42:34;94896.78;;;10.63;76.61
23172;BME280;11754;42.664;23.594;2024-03-02T06:45:00;94897.81;;;10.76;76.10
23172;BME280;11754;42.664;23.594;2024-03-02T06:47:25;94901.25;;;10.77;75.76
23172;BME280;11754;42.664;23.594;2024-03-02T06:49:51;94897.56;;;10.86;75.75
23172;BME280;11754;42.664;23.594;2024-03-02T06:52:16;94901.25;;;10.92;75.31
23172;BME280;11754;42.664;23.594;2024-03-02T06:54:42;94895.97;;;10.92;74.97
23172;BME280;11754;42.664;23.594;2024-03-02T06:57:07;94900.34;;;10.99;74.31
23172;BME280;11754;42.664;23.594;2024-03-02T06:59:33;94898.56;;;11.00;74.55
23172;BME280;11754;42.664;23.594;2024-03-02T07:01:59;94901.81;;;11.02;74.46
23172;BME280;11754;42.664;23.594;2024-03-02T07:04:24;94892.88;;;11.03;74.41
23172;BME280;11754;42.664;23.594;2024-03-02T07:06:49;94897.44;;;11.09;74.28
23172;BME280;11754;42.664;23.594;2024-03-02T07:09:16;94898.16;;;11.18;74.45
23172;BME280;11754;42.664;23.594;2024-03-02T07:11:42;94903.78;;;11.29;73.71
23172;BME280;11754;42.664;23.594;2024-03-02T07:14:07;94894.94;;;11.37;73.15
23172;BME280;11754;42.664;23.594;2024-03-02T07:16:32;94895.94;;;11.51;72.97
23172;BME280;11754;42.664;23.594;2024-03-02T07:18:59;94898.91;;;11.63;72.68
23172;BME280;11754;42.664;23.594;2024-03-02T07:21:27;94903.03;;;11.72;72.05
23172;BME280;11754;42.664;23.594;2024-03-02T07:23:53;94891.69;;;11.93;71.96
23172;BME280;11754;42.664;23.594;2024-03-02T07:26:18;94898.75;;;12.07;70.63
23172;BME280;11754;42.664;23.594;2024-03-02T07:28:47;94898.66;;;12.15;70.02
23172;BME280;11754;42.664;23.594;2024-03-02T07:31:14;94897.78;;;12.08;69.91
23172;BME280;11754;42.664;23.594;2024-03-02T07:33:39;94905.81;;;12.00;69.59
23172;BME280;11754;42.664;23.594;2024-03-02T07:36:05;94910.56;;;11.90;69.72
23172;BME280;11754;42.664;23.594;2024-03-02T07:38:31;94915.72;;;11.76;69.85
23172;BME280;11754;42.664;23.594;2024-03-02T07:40:58;94915.19;;;11.66;70.52
23172;BME280;11754;42.664;23.594;2024-03-02T07:43:23;94912.66;;;11.58;71.17
23172;BME280;11754;42.664;23.594;2024-03-02T07:45:49;94915.56;;;11.63;71.70
23172;BME280;11754;42.664;23.594;2024-03-02T07:48:15;94920.34;;;11.74;70.91
23172;BME280;11754;42.664;23.594;2024-03-02T07:50:41;94918.44;;;11.68;71.39
23172;BME280;11754;42.664;23.594;2024-03-02T07:53:06;94919.34;;;11.75;70.60
23172;BME280;11754;42.664;23.594;2024-03-02T07:55:33;94918.97;;;11.78;70.63
23172;BME280;11754;42.664;23.594;2024-03-02T07:58:00;94911.78;;;11.87;70.82
23172;BME280;11754;42.664;23.594;2024-03-02T08:00:25;94919.88;;;11.86;70.29
23172;BME280;11754;42.664;23.594;2024-03-02T08:02:51;94921.16;;;11.90;69.72
23172;BME280;11754;42.664;23.594;2024-03-02T08:05:17;94927.44;;;11.89;69.12
23172;BME280;11754;42.664;23.594;2024-03-02T08:07:46;94931.56;;;11.76;69.59
23172;BME280;11754;42.664;23.594;2024-03-02T08:10:13;94930.03;;;11.67;69.92
23172;BME280;11754;42.664;23.594;2024-03-02T08:12:38;94934.03;;;11.63;69.17
23172;BME280;11754;42.664;23.594;2024-03-02T08:15:05;94935.44;;;11.59;70.21
23172;BME280;11754;42.664;23.594;2024-03-02T08:17:30;94932.22;;;11.64;70.92
23172;BME280;11754;42.664;23.594;2024-03-02T08:19:56;94932.50;;;11.69;70.81
23172;BME280;11754;42.664;23.594;2024-03-02T08:22:22;94926.28;;;11.76;69.47
23172;BME280;11754;42.664;23.594;2024-03-02T08:24:48;94922.63;;;11.77;68.86
23172;BME280;11754;42.664;23.594;2024-03-02T08:27:13;94930.09;;;11.89;68.79
23172;BME280;11754;42.664;23.594;2024-03-02T08:29:40;94930.09;;;11.89;68.58
23172;BME280;11754;42.664;23.594;2024-03-02T08:32:06;94931.28;;;11.86;68.13
23172;BME280;11754;42.664;23.594;2024-03-02T08:34:32;94932.28;;;11.85;67.61
23172;BME280;11754;42.664;23.594;2024-03-02T08:36:59;94932.00;;;11.80;67.36
23172;BME280;11754;42.664;23.594;2024-03-02T08:39:24;94928.66;;;11.71;68.10
23172;BME280;11754;42.664;23.594;2024-03-02T08:41:50;94928.34;;;11.81;67.77
23172;BME280;11754;42.664;23.594;2024-03-02T08:44:16;94925.50;;;11.83;67.31
23172;BME280;11754;42.664;23.594;2024-03-02T08:46:41;94927.72;;;11.94;67.91
23172;BME280;11754;42.664;23.594;2024-03-02T08:49:07;94923.03;;;11.96;67.91
23172;BME280;11754;42.664;23.594;2024-03-02T08:51:33;94919.91;;;12.07;67.27
23172;BME280;11754;42.664;23.594;2024-03-02T08:53:59;94921.06;;;12.19;67.02
23172;BME280;11754;42.664;23.594;2024-03-02T08:56:24;94922.88;;;12.19;66.36
23172;BME280;11754;42.664;23.594;2024-03-02T08:58:51;94931.41;;;12.21;66.36
23172;BME280;11754;42.664;23.594;2024-03-02T09:01:17;94923.94;;;12.24;66.09
23172;BME280;11754;42.664;23.594;2024-03-02T09:03:43;94925.56;;;12.25;66.08
23172;BME280;11754;42.664;23.594;2024-03-02T09:06:12;94932.59;;;12.18;65.80
23172;BME280;11754;42.664;23.594;2024-03-02T09:08:37;94932.00;;;12.16;65.03
23172;BME280;11754;42.664;23.594;2024-03-02T09:11:04;94931.50;;;12.06;65.52
23172;BME280;11754;42.664;23.594;2024-03-02T09:13:31;94934.69;;;12.01;65.82
23172;BME280;11754;42.664;23.594;2024-03-02T09:15:56;94936.91;;;11.98;65.71
23172;BME280;11754;42.664;23.594;2024-03-02T09:18:22;94942.50;;;12.10;65.77
23172;BME280;11754;42.664;23.594;2024-03-02T09:20:47;94944.19;;;12.17;66.50
23172;BME280;11754;42.664;23.594;2024-03-02T09:23:13;94941.78;;;12.22;65.61
23172;BME280;11754;42.664;23.594;2024-03-02T09:25:38;94936.78;;;12.06;64.97
23172;BME280;11754;42.664;23.594;2024-03-02T09:28:03;94945.66;;;11.98;65.87
23172;BME280;11754;42.664;23.594;2024-03-02T09:30:29;94932.13;;;12.08;65.94
23172;BME280;11754;42.664;23.594;2024-03-02T09:32:54;94944.56;;;11.93;66.11
23172;BME280;11754;42.664;23.594;2024-03-02T09:35:20;94944.31;;;11.88;66.06
23172;BME280;11754;42.664;23.594;2024-03-02T09:37:45;94943.38;;;11.81;67.15
23172;BME280;11754;42.664;23.594;2024-03-02T09:40:11;94942.69;;;11.87;67.49
23172;BME280;11754;42.664;23.594;2024-03-02T09:42:38;94938.91;;;11.96;67.50
23172;BME280;11754;42.664;23.594;2024-03-02T09:45:05;94940.94;;;11.94;67.10
23172;BME280;11754;42.664;23.594;2024-03-02T09:47:31;94949.69;;;11.94;67.20
23172;BME280;11754;42.664;23.594;2024-03-02T09:49:56;94942.28;;;11.90;67.04
23172;BME280;11754;42.664;23.594;2024-03-02T09:52:25;94938.66;;;11.91;67.76
23172;BME280;11754;42.664;23.594;2024-03-02T09:54:50;94950.03;;;11.91;68.42
23172;BME280;11754;42.664;23.594;2024-03-02T09:57:16;94947.91;;;12.01;67.67
23172;BME280;11754;42.664;23.594;2024-03-02T09:59:42;94954.16;;;11.94;68.14
23172;BME280;11754;42.664;23.594;2024-03-02T10:02:07;94952.84;;;11.90;67.88
23172;BME280;11754;42.664;23.594;2024-03-02T10:04:33;94949.31;;;11.97;67.84
23172;BME280;11754;42.664;23.594;2024-03-02T10:07:17;94949.75;;;12.01;67.69
23172;BME280;11754;42.664;23.594;2024-03-02T10:09:45;94945.72;;;12.05;67.37
23172;BME280;11754;42.664;23.594;2024-03-02T10:12:13;94948.88;;;12.15;66.55
23172;BME280;11754;42.664;23.594;2024-03-02T10:14:39;94939.78;;;12.24;66.98
23172;BME280;11754;42.664;23.594;2024-03-02T10:17:05;94944.50;;;12.29;67.37
23172;BME280;11754;42.664;23.594;2024-03-02T10:19:32;94939.84;;;12.31;67.24
23172;BME280;11754;42.664;23.594;2024-03-02T10:21:58;94934.25;;;12.41;67.07
23172;BME280;11754;42.664;23.594;2024-03-02T10:24:24;94937.78;;;12.48;67.27
23172;BME280;11754;42.664;23.594;2024-03-02T10:26:51;94942.16;;;12.62;67.03
23172;BME280;11754;42.664;23.594;2024-03-02T10:29:17;94937.34;;;12.72;65.57
23172;BME280;11754;42.664;23.594;2024-03-02T10:31:46;94932.91;;;12.80;65.95
23172;BME280;11754;42.664;23.594;2024-03-02T10:34:12;94932.47;;;13.04;65.52
23172;BME280;11754;42.664;23.594;2024-03-02T10:36:41;94938.38;;;13.06;64.84
23172;BME280;11754;42.664;23.594;2024-03-02T10:39:08;94934.28;;;13.04;65.28
23172;BME280;11754;42.664;23.594;2024-03-02T10:41:35;94936.56;;;13.07;65.38
23172;BME280;11754;42.664;23.594;2024-03-02T10:44:06;94935.75;;;13.06;65.63
23172;BME280;11754;42.664;23.594;2024-03-02T10:46:34;94931.53;;;13.18;65.58
23172;BME280;11754;42.664;23.594;2024-03-02T10:49:01;94938.56;;;13.33;66.10
23172;BME280;11754;42.664;23.594;2024-03-02T10:51:28;94923.91;;;13.37;65.54
23172;BME280;11754;42.664;23.594;2024-03-02T10:53:57;94922.63;;;13.26;64.68
23172;BME280;11754;42.664;23.594;2024-03-02T10:56:28;94925.94;;;13.35;63.61
23172;BME280;11754;42.664;23.594;2024-03-02T10:59:21;94917.88;;;13.50;63.33
23172;BME280;11754;42.664;23.594;2024-03-02T11:01:50;94911.84;;;13.76;63.65
23172;BME280;11754;42.664;23.594;2024-03-02T11:04:17;94919.44;;;13.92;62.38
23172;BME280;11754;42.664;23.594;2024-03-02T11:06:50;94910.66;;;13.98;62.46
23172;BME280;11754;42.664;23.594;2024-03-02T11:09:19;94903.34;;;14.20;61.74
23172;BME280;11754;42.664;23.594;2024-03-02T11:11:49;94904.19;;;14.40;60.96
23172;BME280;11754;42.664;23.594;2024-03-02T11:14:21;94899.31;;;14.84;59.58
23172;BME280;11754;42.664;23.594;2024-03-02T11:16:46;94903.31;;;15.13;58.48
23172;BME280;11754;42.664;23.594;2024-03-02T11:19:13;94906.13;;;15.38;57.36
23172;BME280;11754;42.664;23.594;2024-03-02T11:21:40;94903.22;;;15.46;57.80
23172;BME280;11754;42.664;23.594;2024-03-02T11:26:51;94903.28;;;15.33;58.74
23172;BME280;11754;42.664;23.594;2024-03-02T11:32:01;94905.75;;;15.21;59.14
23172;BME280;11754;42.664;23.594;2024-03-02T11:34:30;94900.44;;;15.14;59.54
23172;BME280;11754;42.664;23.594;2024-03-02T11:36:57;94890.22;;;15.18;58.30
23172;BME280;11754;42.664;23.594;2024-03-02T11:39:27;94895.53;;;15.25;59.61
23172;BME280;11754;42.664;23.594;2024-03-02T11:41:53;94902.00;;;15.42;59.50
23172;BME280;11754;42.664;23.594;2024-03-02T11:44:19;94904.81;;;15.60;58.79
23172;BME280;11754;42.664;23.594;2024-03-02T11:46:45;94894.50;;;15.84;57.96
23172;BME280;11754;42.664;23.594;2024-03-02T11:49:15;94882.00;;;16.23;57.28
23172;BME280;11754;42.664;23.594;2024-03-02T11:51:54;94882.25;;;16.40;55.70
23172;BME280;11754;42.664;23.594;2024-03-02T11:54:26;94879.41;;;16.41;54.63
23172;BME280;11754;42.664;23.594;2024-03-02T11:56:54;94880.69;;;16.32;55.11
23172;BME280;11754;42.664;23.594;2024-03-02T11:59:20;94886.53;;;16.16;55.74
23172;BME280;11754;42.664;23.594;2024-03-02T12:01:47;94887.09;;;15.93;56.09
23172;BME280;11754;42.664;23.594;2024-03-02T12:04:13;94887.69;;;15.95;55.51
23172;BME280;11754;42.664;23.594;2024-03-02T12:06:38;94891.66;;;15.79;55.35
23172;BME280;11754;42.664;23.594;2024-03-02T12:09:04;94886.41;;;15.66;55.48
23172;BME280;11754;42.664;23.594;2024-03-02T12:11:30;94893.38;;;15.67;55.89
23172;BME280;11754;42.664;23.594;2024-03-02T12:13:55;94893.53;;;15.72;55.83
23172;BME280;11754;42.664;23.594;2024-03-02T12:16:25;94891.91;;;15.71;54.90
23172;BME280;11754;42.664;23.594;2024-03-02T12:18:50;94891.31;;;15.69;55.95
23172;BME280;11754;42.664;23.594;2024-03-02T12:21:16;94883.94;;;15.71;55.72
23172;BME280;11754;42.664;23.594;2024-03-02T12:23:42;94892.91;;;15.76;56.09
23172;BME280;11754;42.664;23.594;2024-03-02T12:26:07;94893.63;;;15.90;55.83
23172;BME280;11754;42.664;23.594;2024-03-02T12:28:33;94889.09;;;15.97;55.78
23172;BME280;11754;42.664;23.594;2024-03-02T12:30:59;94884.34;;;16.06;54.48
23172;BME280;11754;42.664;23.594;2024-03-02T12:33:24;94884.13;;;16.07;53.83
23172;BME280;11754;42.664;23.594;2024-03-02T12:35:50;94881.66;;;16.13;53.77
23172;BME280;11754;42.664;23.594;2024-03-02T12:38:15;94877.88;;;15.95;54.28
23172;BME280;11754;42.664;23.594;2024-03-02T12:40:41;94894.88;;;15.94;54.96
23172;BME280;11754;42.664;23.594;2024-03-02T12:43:06;94889.53;;;15.94;53.80
23172;BME280;11754;42.664;23.594;2024-03-02T12:45:32;94882.66;;;15.80;53.08
23172;BME280;11754;42.664;23.594;2024-03-02T12:48:00;94902.78;;;15.56;53.75
23172;BME280;11754;42.664;23.594;2024-03-02T12:50:25;94894.13;;;15.16;53.99
23172;BME280;11754;42.664;23.594;2024-03-02T12:52:52;94888.47;;;14.92;54.68
23172;BME280;11754;42.664;23.594;2024-03-02T12:55:20;94894.16;;;14.89;55.76
23172;BME280;11754;42.664;23.594;2024-03-02T12:57:47;94903.75;;;15.03;56.57
23172;BME280;11754;42.664;23.594;2024-03-02T13:00:12;94891.09;;;15.05;56.30
23172;BME280;11754;42.664;23.594;2024-03-02T13:02:41;94907.00;;;15.12;55.43
23172;BME280;11754;42.664;23.594;2024-03-02T13:05:07;94892.72;;;15.06;54.84
23172;BME280;11754;42.664;23.594;2024-03-02T13:07:39;94900.69;;;15.06;54.87
23172;BME280;11754;42.664;23.594;2024-03-02T13:10:06;94898.41;;;15.17;55.22
23172;BME280;11754;42.664;23.594;2024-03-02T13:12:32;94892.59;;;15.46;54.77
23172;BME280;11754;42.664;23.594;2024-03-02T13:14:58;94896.78;;;15.80;54.61